Time;durP1;ratioP1;P1;durP2;ratioP2;P2;SDS_P1;SDS_P2;PMS_P1;PMS_P2;Temp;Humidity;BMP_temperature;BMP_pressure;BME280_temperature;BME280_humidity;BME280_pressure;Samples;Min_cycle;Max_cycle;Signal;HPM_P1;HPM_P2
2023/09/04 00:00:26;;;;;;;4.70;2.67;;;;;;;19.00;53.94;101065.38;5072722;28;20068;-82
2023/09/04 00:02:53;;;;;;;3.78;2.28;;;;;;;18.96;53.91;101071.91;5038775;28;20046;-82
2023/09/04 00:05:19;;;;;;;7.07;2.80;;;;;;;18.90;54.02;101067.00;5032713;28;20049;-81
2023/09/04 00:07:46;;;;;;;4.90;3.10;;;;;;;18.86;54.42;101078.84;5032690;28;20114;-81
2023/09/04 00:10:12;;;;;;;3.97;2.60;;;;;;;18.82;54.52;101072.91;5032673;28;20469;-81
2023/09/04 00:12:39;;;;;;;4.60;3.05;;;;;;;18.78;54.54;101074.06;5044668;28;20053;-82
2023/09/04 00:15:06;;;;;;;6.72;2.95;;;;;;;18.77;54.46;101071.50;5052686;28;20045;-81
2023/09/04 00:17:33;;;;;;;6.55;3.05;;;;;;;18.72;54.49;101063.81;5052546;28;20053;-82
2023/09/04 00:19:59;;;;;;;8.50;3.28;;;;;;;18.71;54.92;101070.13;5048284;28;20050;-81
2023/09/04 00:22:27;;;;;;;4.45;3.00;;;;;;;18.68;55.06;101073.00;5032214;28;20050;-81
2023/09/04 00:24:54;;;;;;;6.32;3.45;;;;;;;18.68;55.32;101073.00;5032616;28;20057;-81
2023/09/04 00:27:21;;;;;;;6.28;3.00;;;;;;;18.66;55.22;101075.81;5032344;28;20049;-81
2023/09/04 00:29:47;;;;;;;4.00;3.10;;;;;;;18.67;55.30;101071.31;5014867;28;20085;-81
2023/09/04 00:32:14;;;;;;;4.38;2.80;;;;;;;18.67;55.49;101065.97;5047600;28;20066;-81
2023/09/04 00:34:40;;;;;;;5.60;3.33;;;;;;;18.66;55.80;101070.47;5032397;28;20473;-81
2023/09/04 00:37:09;;;;;;;4.40;2.80;;;;;;;18.67;55.60;101076.63;5032233;28;20053;-81
2023/09/04 00:39:37;;;;;;;7.85;3.10;;;;;;;18.66;55.61;101072.28;5014685;28;20049;-81
2023/09/04 00:42:03;;;;;;;5.32;2.80;;;;;;;18.66;55.54;101072.28;5047301;28;20110;-81
2023/09/04 00:44:30;;;;;;;3.25;2.70;;;;;;;18.64;55.23;101064.38;5052068;28;20053;-81
2023/09/04 00:46:57;;;;;;;3.97;2.75;;;;;;;18.65;55.51;101073.25;5034252;28;20053;-80
2023/09/04 00:49:24;;;;;;;6.40;3.20;;;;;;;18.64;55.54;101064.38;5051814;28;20088;-82
2023/09/04 00:51:52;;;;;;;5.32;2.95;;;;;;;18.65;55.69;101062.56;5022759;28;20053;-82
2023/09/04 00:54:19;;;;;;;4.60;3.25;;;;;;;18.65;55.53;101065.25;5035239;28;20058;-82
2023/09/04 00:56:48;;;;;;;6.25;3.10;;;;;;;18.66;55.80;101074.94;5032398;28;20048;-81
2023/09/04 00:59:15;;;;;;;3.95;2.78;;;;;;;18.66;55.37;101066.94;5051693;28;20049;-81
2023/09/04 01:01:41;;;;;;;6.05;3.05;;;;;;;18.66;55.60;101065.13;5026674;28;20045;-81
2023/09/04 01:04:08;;;;;;;4.30;2.47;;;;;;;18.67;55.37;101068.63;5014034;28;20089;-81
2023/09/04 01:06:34;;;;;;;6.15;3.17;;;;;;;18.67;55.25;101068.63;5013931;28;20087;-82
2023/09/04 01:09:01;;;;;;;8.60;3.75;;;;;;;18.67;55.44;101065.97;5032741;28;20053;-82
2023/09/04 01:12:02;;;;;;;5.65;3.33;;;;;;;18.65;55.70;101067.91;5031538;28;20045;-81
2023/09/04 01:14:30;;;;;;;6.13;3.00;;;;;;;18.69;55.24;101069.41;5031562;28;20061;-81
2023/09/04 01:16:58;;;;;;;6.82;3.65;;;;;;;18.69;55.63;101067.56;5032731;28;20115;-81
2023/09/04 01:19:25;;;;;;;7.78;3.80;;;;;;;18.69;55.30;101059.56;5049240;28;20053;-82
2023/09/04 01:21:52;;;;;;;7.47;3.92;;;;;;;18.70;55.69;101065.75;5051080;28;20049;-81
2023/09/04 01:24:18;;;;;;;7.10;4.18;;;;;;;18.69;55.42;101058.72;5051430;28;20096;-81
2023/09/04 01:26:58;;;;;;;7.13;3.55;;;;;;;18.67;55.81;101060.63;5044349;28;20041;-81
2023/09/04 01:30:07;;;;;;;5.88;3.20;;;;;;;18.66;55.62;101066.94;5031730;28;20132;-81
2023/09/04 01:32:41;;;;;;;9.77;3.80;;;;;;;18.69;55.83;101064.06;4969686;28;20074;-81
2023/09/04 01:35:10;;;;;;;6.63;3.53;;;;;;;18.69;55.74;101056.06;5025707;28;20130;-81
2023/09/04 01:37:39;;;;;;;4.07;2.92;;;;;;;18.69;55.43;101054.22;5045751;28;20474;-81
2023/09/04 01:40:07;;;;;;;7.22;3.20;;;;;;;18.67;55.46;101056.16;5031221;28;20057;-82
2023/09/04 01:42:36;;;;;;;10.75;3.20;;;;;;;18.67;55.45;101055.28;5031008;28;20064;-81
2023/09/04 01:45:03;;;;;;;4.80;2.70;;;;;;;18.65;55.47;101050.06;5030897;28;20486;-80
2023/09/04 01:47:30;;;;;;;3.60;2.90;;;;;;;18.64;55.21;101052.88;5048203;28;20044;-81
2023/09/04 01:49:57;;;;;;;4.78;2.95;;;;;;;18.64;55.64;101055.53;5050706;28;20084;-81
2023/09/04 01:52:24;;;;;;;3.35;2.65;;;;;;;18.62;55.71;101048.47;5050873;28;20049;-81
2023/09/04 01:54:50;;;;;;;3.13;2.60;;;;;;;18.61;55.70;101037.91;5050970;28;20562;-81
2023/09/04 01:57:17;;;;;;;8.63;2.83;;;;;;;18.59;55.75;101043.38;5037847;28;20049;-81
2023/09/04 01:59:43;;;;;;;4.15;2.40;;;;;;;18.58;55.83;101030.97;5030878;28;20057;-81
2023/09/04 02:02:10;;;;;;;3.25;2.67;;;;;;;18.58;55.67;101024.81;5030658;28;20041;-81
2023/09/04 02:04:36;;;;;;;3.13;2.58;;;;;;;18.57;55.89;101026.63;5013178;28;20081;-81
2023/09/04 02:07:03;;;;;;;3.90;2.03;;;;;;;18.56;55.75;101022.25;5031870;28;20054;-81
2023/09/04 02:09:30;;;;;;;4.25;2.40;;;;;;;18.56;55.60;101024.06;5030817;28;20067;-81
2023/09/04 02:11:56;;;;;;;3.00;2.38;;;;;;;18.55;56.00;101017.91;5013134;28;20128;-81
2023/09/04 02:14:24;;;;;;;4.15;2.40;;;;;;;18.55;55.95;101011.69;5030830;28;20049;-81
2023/09/04 02:16:51;;;;;;;4.25;2.45;;;;;;;18.54;55.59;101013.50;5016213;28;20053;-81
2023/09/04 02:19:18;;;;;;;4.03;2.78;;;;;;;18.55;55.79;101014.38;5039007;28;20544;-81
2023/09/04 02:21:44;;;;;;;2.55;1.98;;;;;;;18.53;55.78;101010.94;5040997;28;20460;-80
2023/09/04 02:24:11;;;;;;;4.40;2.50;;;;;;;18.52;55.90;101012.78;5050624;28;20053;-81
2023/09/04 02:26:37;;;;;;;2.83;2.45;;;;;;;18.51;56.23;101003.06;5043745;28;20128;-81
2023/09/04 02:29:04;;;;;;;2.40;2.20;;;;;;;18.50;56.01;101006.69;5030757;28;20041;-81
2023/09/04 02:31:30;;;;;;;2.63;2.05;;;;;;;18.49;56.11;101010.31;5030232;28;20516;-81
2023/09/04 02:33:57;;;;;;;3.28;2.20;;;;;;;18.47;56.06;101015.75;5030759;28;20128;-81
2023/09/04 02:36:24;;;;;;;3.63;2.22;;;;;;;18.46;55.92;101006.06;5032096;28;20049;-81
2023/09/04 02:38:50;;;;;;;5.93;2.17;;;;;;;18.45;56.01;101009.69;5050489;28;20049;-80
2023/09/04 02:41:17;;;;;;;2.42;2.17;;;;;;;18.44;56.11;101009.78;5032524;28;20543;-81
2023/09/04 02:43:43;;;;;;;6.65;2.38;;;;;;;18.45;56.25;101019.47;5050323;28;20084;-81
2023/09/04 02:46:10;;;;;;;8.50;2.10;;;;;;;18.43;56.16;101022.25;5050106;28;20106;-82
2023/09/04 02:48:37;;;;;;;5.22;2.50;;;;;;;18.43;56.45;101021.41;5049566;28;20053;-82
2023/09/04 02:51:03;;;;;;;2.88;1.83;;;;;;;18.42;56.42;101019.69;5032197;28;20049;-81
2023/09/04 02:53:32;;;;;;;2.40;1.90;;;;;;;18.41;56.53;101010.84;5032571;28;20051;-82
2023/09/04 02:55:59;;;;;;;7.25;2.45;;;;;;;18.41;56.09;101013.53;5050279;28;20103;-80
2023/09/04 02:58:25;;;;;;;2.55;2.05;;;;;;;18.41;56.19;101010.84;5037793;28;20053;-81
2023/09/04 03:00:52;;;;;;;2.30;1.98;;;;;;;18.40;56.15;101010.97;5047818;28;20041;-81
2023/09/04 03:03:21;;;;;;;3.95;2.30;;;;;;;18.40;56.36;101013.63;5050565;28;20056;-81
2023/09/04 03:05:48;;;;;;;7.05;2.20;;;;;;;18.38;56.12;101012.91;5032481;28;20053;-81
2023/09/04 03:08:15;;;;;;;4.57;2.17;;;;;;;18.35;56.64;101012.13;5050212;28;20094;-81
2023/09/04 03:10:41;;;;;;;4.22;2.20;;;;;;;18.35;56.31;101014.81;5036583;28;20180;-81
2023/09/04 03:13:08;;;;;;;4.95;2.15;;;;;;;18.32;56.25;101020.34;5030199;28;20091;-81
2023/09/04 03:15:35;;;;;;;3.35;2.00;;;;;;;18.30;56.40;101019.59;5012910;28;20045;-81
2023/09/04 03:18:01;;;;;;;2.47;2.08;;;;;;;18.27;56.05;101022.47;5033890;28;20064;-81
2023/09/04 03:20:28;;;;;;;5.78;1.98;;;;;;;18.23;55.87;101016.50;5041848;28;20041;-81
2023/09/04 03:22:54;;;;;;;3.22;1.98;;;;;;;18.19;56.13;101020.34;5053614;28;20053;-81
2023/09/04 03:25:21;;;;;;;3.45;2.17;;;;;;;18.16;56.43;101019.72;5053477;28;20051;-81
2023/09/04 03:27:48;;;;;;;3.25;1.95;;;;;;;18.12;56.10;101013.72;5053479;28;20049;-80
2023/09/04 03:30:14;;;;;;;4.85;2.22;;;;;;;18.07;56.16;101016.69;5049758;28;20045;-80
2023/09/04 03:32:41;;;;;;;6.43;2.58;;;;;;;18.03;56.41;101009.88;5033229;28;20064;-81
2023/09/04 03:35:08;;;;;;;4.53;2.13;;;;;;;18.00;56.40;101003.88;5033670;28;20092;-81
2023/09/04 03:37:37;;;;;;;2.53;2.15;;;;;;;17.95;56.69;101014.88;5033655;28;20464;-80
2023/09/04 03:40:24;;;;;;;3.22;1.92;;;;;;;17.88;56.96;101010.91;5033258;28;20134;-81
2023/09/04 03:42:51;;;;;;;2.10;1.90;;;;;;;17.89;56.69;101001.94;5038801;28;20448;-81
2023/09/04 03:45:19;;;;;;;2.42;2.08;;;;;;;17.86;56.65;101000.34;5044218;28;20060;-81
2023/09/04 03:47:46;;;;;;;3.63;1.90;;;;;;;17.86;56.89;100996.84;5033303;28;20056;-81
2023/09/04 03:50:13;;;;;;;4.18;2.17;;;;;;;17.83;56.48;100995.25;5015554;28;20095;-80
2023/09/04 03:52:41;;;;;;;5.57;2.17;;;;;;;17.81;56.67;100991.81;5050401;28;20053;-81
2023/09/04 03:55:09;;;;;;;4.25;2.22;;;;;;;17.79;56.79;100985.75;5052847;28;20057;-81
2023/09/04 03:57:36;;;;;;;2.33;2.05;;;;;;;17.78;56.79;100984.03;5053090;28;20045;-81
2023/09/04 04:00:19;;;;;;;4.60;2.38;;;;;;;17.76;56.89;100993.97;5052750;28;20049;-81
2023/09/04 04:02:47;;;;;;;3.65;1.90;;;;;;;17.74;56.55;100987.88;5036721;28;20064;-82
2023/09/04 04:05:16;;;;;;;3.50;1.98;;;;;;;17.72;56.71;100993.31;5042831;28;20592;-81
2023/09/04 04:07:42;;;;;;;3.03;2.03;;;;;;;17.68;56.58;100990.00;5052745;28;20045;-80
2023/09/04 04:10:10;;;;;;;3.15;2.00;;;;;;;17.65;57.01;100992.03;5052803;28;20053;-82
2023/09/04 04:12:37;;;;;;;2.58;1.92;;;;;;;17.64;57.29;100995.66;5052548;28;20106;-81
2023/09/04 04:15:06;;;;;;;2.92;2.22;;;;;;;17.61;57.23;100993.19;5050678;28;20390;-81
2023/09/04 04:17:34;;;;;;;3.40;2.38;;;;;;;17.58;57.23;100994.25;5032584;28;20056;-81
2023/09/04 04:20:03;;;;;;;5.15;2.50;;;;;;;17.56;57.12;101001.47;5032429;28;20053;-80
2023/09/04 04:22:29;;;;;;;4.07;2.50;;;;;;;17.54;57.45;100998.06;5032484;28;20080;-82
2023/09/04 04:24:56;;;;;;;2.75;1.85;;;;;;;17.52;57.22;100995.50;5032785;28;20104;-81
2023/09/04 04:27:23;;;;;;;7.80;2.58;;;;;;;17.50;57.29;100988.56;5052015;28;20453;-82
2023/09/04 04:29:52;;;;;;;5.20;2.45;;;;;;;17.48;57.45;100987.81;5072237;28;20114;-81
2023/09/04 04:32:18;;;;;;;3.10;2.28;;;;;;;17.47;57.57;100994.09;5072038;28;20061;-82
2023/09/04 04:34:45;;;;;;;4.05;2.30;;;;;;;17.45;57.59;100994.19;5072105;28;20090;-81
2023/09/04 04:37:12;;;;;;;2.80;2.20;;;;;;;17.43;57.51;101004.09;5039589;28;20106;-81
2023/09/04 04:39:38;;;;;;;6.00;2.63;;;;;;;17.40;57.49;100998.97;5052152;28;20091;-81
2023/09/04 04:42:05;;;;;;;5.20;2.75;;;;;;;17.38;57.77;101004.38;5051967;28;20049;-81
2023/09/04 04:44:32;;;;;;;4.57;2.28;;;;;;;17.37;57.79;100996.50;5052035;28;20049;-82
2023/09/04 04:46:58;;;;;;;7.35;2.40;;;;;;;17.35;57.94;100998.44;5045336;28;20041;-81
2023/09/04 04:49:25;;;;;;;3.58;2.40;;;;;;;17.34;57.76;100994.06;5050784;28;20049;-81
2023/09/04 04:51:51;;;;;;;3.97;2.58;;;;;;;17.31;57.92;100984.47;5043020;28;20188;-82
2023/09/04 04:54:19;;;;;;;4.60;2.85;;;;;;;17.30;58.22;100990.72;5014568;28;20452;-81
2023/09/04 04:56:48;;;;;;;4.50;2.50;;;;;;;17.28;58.02;100993.53;5031923;28;20115;-81
2023/09/04 04:59:15;;;;;;;3.65;2.80;;;;;;;17.26;58.18;100992.75;5045710;28;20045;-81
2023/09/04 05:01:42;;;;;;;3.75;2.72;;;;;;;17.26;57.89;100995.41;5051167;28;20049;-81
2023/09/04 05:04:09;;;;;;;3.60;2.92;;;;;;;17.22;58.25;100993.91;5051367;28;20489;-81
2023/09/04 05:06:35;;;;;;;5.35;3.15;;;;;;;17.21;58.20;100994.00;5033824;28;20417;-82
2023/09/04 05:09:03;;;;;;;6.10;2.90;;;;;;;17.18;58.32;100995.06;5051522;28;20053;-81
2023/09/04 05:11:30;;;;;;;3.05;2.65;;;;;;;17.16;58.29;100995.16;5047310;28;20038;-82
2023/09/04 05:13:59;;;;;;;3.47;2.35;;;;;;;17.16;58.14;100994.31;5037971;28;20216;-81
2023/09/04 05:16:26;;;;;;;6.72;2.88;;;;;;;17.15;58.28;100990.78;5051846;28;20463;-81
2023/09/04 05:18:54;;;;;;;4.15;2.70;;;;;;;17.13;58.36;100995.38;5051456;28;20072;-82
2023/09/04 05:21:21;;;;;;;3.70;2.90;;;;;;;17.12;58.18;100990.97;5017614;28;20540;-81
2023/09/04 05:23:50;;;;;;;6.47;3.08;;;;;;;17.11;58.38;100996.41;5014116;28;20131;-82
2023/09/04 05:26:16;;;;;;;6.30;3.03;;;;;;;17.08;58.36;101000.13;5031398;28;20050;-81
2023/09/04 05:28:43;;;;;;;5.15;3.63;;;;;;;17.08;58.47;100999.28;5031187;28;20485;-81
2023/09/04 05:31:10;;;;;;;5.22;3.58;;;;;;;17.08;58.62;100999.28;5042157;28;20107;-82
2023/09/04 05:33:36;;;;;;;5.70;3.53;;;;;;;17.07;58.76;100998.41;5033673;28;20158;-81
2023/09/04 05:36:03;;;;;;;6.55;3.70;;;;;;;17.07;58.88;101001.06;5033565;28;20053;-80
2023/09/04 05:38:30;;;;;;;5.15;3.22;;;;;;;17.08;59.21;100999.28;5050805;28;20670;-80
2023/09/04 05:40:58;;;;;;;5.35;3.28;;;;;;;17.09;59.24;101001.84;5043638;28;20103;-81
2023/09/04 05:43:24;;;;;;;6.32;3.38;;;;;;;17.12;59.41;101000.78;5049652;28;20056;-80
2023/09/04 05:45:52;;;;;;;5.10;3.42;;;;;;;17.14;59.63;100998.88;5051136;28;20139;-80
2023/09/04 05:48:18;;;;;;;4.68;3.42;;;;;;;17.16;59.85;100989.84;5051088;28;20045;-80
2023/09/04 05:50:45;;;;;;;5.40;3.42;;;;;;;17.19;59.80;100994.09;5032922;28;20557;-80
2023/09/04 05:53:14;;;;;;;3.65;3.20;;;;;;;17.21;59.90;100991.34;5019366;28;20056;-80
2023/09/04 05:55:42;;;;;;;6.45;4.07;;;;;;;17.23;59.90;101000.94;5030837;28;20061;-80
2023/09/04 05:58:11;;;;;;;9.88;4.07;;;;;;;17.24;60.38;100997.34;5013484;28;20053;-80
2023/09/04 06:00:37;;;;;;;4.82;3.47;;;;;;;17.27;60.54;101002.44;5030907;28;20529;-80
2023/09/04 06:03:04;;;;;;;7.05;4.13;;;;;;;17.31;60.54;101008.44;5022966;28;20508;-80
2023/09/04 06:05:30;;;;;;;5.45;4.00;;;;;;;17.33;60.64;101001.19;5050640;28;20056;-80
2023/09/04 06:07:57;;;;;;;7.97;3.88;;;;;;;17.36;60.70;101010.78;5050716;28;20130;-80
2023/09/04 06:10:23;;;;;;;5.50;4.03;;;;;;;17.40;61.03;101007.81;5050799;28;20087;-79
2023/09/04 06:12:52;;;;;;;7.80;4.47;;;;;;;17.44;61.00;101008.47;5044863;28;20482;-80
2023/09/04 06:15:19;;;;;;;5.10;3.97;;;;;;;17.50;61.45;101017.84;5030646;28;20406;-80
2023/09/04 06:17:45;;;;;;;5.55;4.40;;;;;;;17.54;61.22;101017.53;5030717;28;20049;-79
2023/09/04 06:20:12;;;;;;;5.93;4.13;;;;;;;17.60;61.25;101015.44;5030693;28;20050;-80
2023/09/04 06:22:39;;;;;;;9.07;4.55;;;;;;;17.65;60.95;101014.16;5031127;28;20089;-80
2023/09/04 06:25:06;;;;;;;6.07;4.20;;;;;;;17.69;61.31;101010.34;5032694;28;20102;-79
2023/09/04 06:27:33;;;;;;;5.13;4.15;;;;;;;17.75;61.16;101019.72;5050325;28;20139;-79
2023/09/04 06:29:59;;;;;;;5.70;4.50;;;;;;;17.80;61.21;101020.25;5050488;28;20115;-79
2023/09/04 06:32:26;;;;;;;8.32;5.30;;;;;;;17.84;61.47;101010.28;5050340;28;20057;-80
2023/09/04 06:34:52;;;;;;;5.18;4.57;;;;;;;17.89;61.13;101015.28;5033811;28;20065;-80
2023/09/04 06:37:19;;;;;;;5.13;4.43;;;;;;;17.92;61.13;101017.72;5047052;28;20069;-79
2023/09/04 06:39:45;;;;;;;6.43;4.78;;;;;;;17.96;61.53;101024.56;5042023;28;20168;-80
2023/09/04 06:42:12;;;;;;;5.95;4.90;;;;;;;18.00;61.45;101025.19;5050074;28;20509;-80
2023/09/04 06:44:38;;;;;;;6.05;4.40;;;;;;;18.03;61.56;101015.19;5050459;28;20144;-80
2023/09/04 06:47:05;;;;;;;5.90;4.82;;;;;;;18.08;61.48;101017.56;5050034;28;20044;-79
2023/09/04 06:49:31;;;;;;;6.88;4.88;;;;;;;18.13;61.58;101009.25;5042531;28;20052;-80
2023/09/04 06:51:58;;;;;;;8.68;4.40;;;;;;;18.17;61.56;101013.44;5032268;28;20129;-80
2023/09/04 06:54:25;;;;;;;4.72;4.22;;;;;;;18.21;61.65;101014.91;5016782;28;20107;-79
2023/09/04 06:56:52;;;;;;;5.80;3.83;;;;;;;18.26;61.47;101014.59;5033898;28;20485;-79
2023/09/04 06:59:18;;;;;;;5.50;3.53;;;;;;;18.32;61.32;101014.16;5035215;28;20045;-80
2023/09/04 07:01:45;;;;;;;3.80;3.28;;;;;;;18.36;60.98;101018.34;5034288;28;20057;-80
2023/09/04 07:04:12;;;;;;;5.28;3.17;;;;;;;18.42;61.16;101011.69;5036291;28;20048;-80
2023/09/04 07:06:38;;;;;;;5.90;3.17;;;;;;;18.49;60.83;101011.16;5053714;28;20053;-79
2023/09/04 07:09:05;;;;;;;3.30;3.00;;;;;;;18.54;61.19;101016.16;5053992;28;20120;-80
2023/09/04 07:11:32;;;;;;;3.85;3.45;;;;;;;18.60;60.82;101017.53;5035724;28;20489;-80
2023/09/04 07:13:58;;;;;;;6.35;3.78;;;;;;;18.65;60.91;101012.72;5035158;28;20510;-80
2023/09/04 07:16:25;;;;;;;4.50;3.20;;;;;;;18.70;61.10;101013.28;5045677;28;20053;-80
2023/09/04 07:19:07;;;;;;;3.97;3.30;;;;;;;18.76;60.86;101011.97;5038067;28;20084;-79
2023/09/04 07:21:36;;;;;;;3.60;3.03;;;;;;;18.82;61.29;101016.88;5053668;28;20049;-80
2023/09/04 07:24:03;;;;;;;3.55;3.03;;;;;;;18.87;61.46;101014.72;5036089;28;20041;-80
2023/09/04 07:26:30;;;;;;;6.55;3.10;;;;;;;18.93;60.74;101012.56;5026291;28;20054;-80
2023/09/04 07:28:56;;;;;;;3.88;3.40;;;;;;;18.97;60.60;101012.25;5018539;28;20136;-79
2023/09/04 07:31:23;;;;;;;3.10;2.80;;;;;;;19.01;60.57;101011.06;5053157;28;20049;-80
2023/09/04 07:33:50;;;;;;;4.38;3.05;;;;;;;19.08;60.36;101024.84;5053259;28;20048;-79
2023/09/04 07:36:17;;;;;;;3.50;2.65;;;;;;;19.14;60.75;101013.72;5035580;28;20485;-80
2023/09/04 07:38:45;;;;;;;4.22;3.00;;;;;;;19.21;60.74;101015.94;5053451;28;20149;-80
2023/09/04 07:41:12;;;;;;;5.30;3.10;;;;;;;19.29;60.81;101018.03;5034884;28;20053;-80
2023/09/04 07:43:38;;;;;;;5.32;2.90;;;;;;;19.35;60.67;101018.44;5033326;28;20502;-80
2023/09/04 07:46:05;;;;;;;5.13;3.25;;;;;;;19.41;60.80;101014.47;5033109;28;20455;-80
2023/09/04 07:48:33;;;;;;;5.60;3.40;;;;;;;19.50;60.70;101015.56;5033052;28;20045;-80
2023/09/04 07:51:03;;;;;;;9.20;3.53;;;;;;;19.56;60.51;101019.59;5046165;28;20048;-80
2023/09/04 07:53:29;;;;;;;4.63;3.83;;;;;;;19.63;60.69;101019.03;5035450;28;20460;-80
2023/09/04 07:55:56;;;;;;;5.78;4.10;;;;;;;19.67;60.64;101015.16;5052964;28;20087;-79
2023/09/04 07:58:22;;;;;;;4.15;3.47;;;;;;;19.73;60.60;101018.34;5035486;28;20076;-80
2023/09/04 08:00:50;;;;;;;4.63;3.72;;;;;;;19.78;60.43;101025.03;5025568;28;20072;-80
2023/09/04 08:03:18;;;;;;;4.32;3.88;;;;;;;19.84;60.29;101028.22;5045513;28;20092;-80
2023/09/04 08:05:45;;;;;;;3.95;3.58;;;;;;;19.88;60.77;101021.66;5076150;22;20055;-76
2023/09/04 08:08:12;;;;;;;4.65;3.65;;;;;;;19.93;60.41;101023.00;5053789;28;20053;-76
2023/09/04 08:10:40;;;;;;;4.03;2.78;;;;;;;19.99;60.18;101031.53;5053280;28;20489;-77
2023/09/04 08:13:10;;;;;;;3.35;2.90;;;;;;;20.02;60.20;101024.16;5053553;28;20136;-77
2023/09/04 08:15:40;;;;;;;3.35;2.58;;;;;;;20.12;59.79;101023.44;5052584;28;20045;-77
2023/09/04 08:18:07;;;;;;;3.58;2.65;;;;;;;20.17;59.81;101016.78;5053319;28;20081;-77
2023/09/04 08:20:36;;;;;;;5.32;3.15;;;;;;;20.25;59.85;101026.00;5053128;28;20056;-76
2023/09/04 08:23:03;;;;;;;6.40;3.40;;;;;;;20.32;60.15;101019.22;5053032;28;20543;-77
2023/09/04 08:25:31;;;;;;;3.45;3.15;;;;;;;20.39;59.60;101014.22;5045306;28;20046;-76
2023/09/04 08:28:02;;;;;;;9.55;4.07;;;;;;;20.48;59.87;101016.19;5015749;28;20050;-76
2023/09/04 08:30:29;;;;;;;4.38;3.05;;;;;;;20.55;59.80;101016.53;5039777;28;20060;-77
2023/09/04 08:32:56;;;;;;;4.45;2.78;;;;;;;20.62;59.44;101020.44;5053145;28;20045;-78
2023/09/04 08:35:25;;;;;;;4.15;2.65;;;;;;;20.69;59.51;101007.41;5048893;28;20041;-76
2023/09/04 08:37:51;;;;;;;3.42;2.60;;;;;;;20.78;59.34;101006.69;5032894;28;20083;-77
2023/09/04 08:40:18;;;;;;;3.35;2.70;;;;;;;20.86;59.27;101003.38;5032920;28;20111;-77
2023/09/04 08:42:47;;;;;;;3.35;2.63;;;;;;;20.93;59.23;100999.25;5032553;28;20132;-76
2023/09/04 08:45:17;;;;;;;2.90;2.58;;;;;;;21.03;59.17;100998.50;5032985;28;20448;-76
2023/09/04 08:47:44;;;;;;;5.40;2.83;;;;;;;21.12;58.58;100997.75;5035732;28;20049;-77
2023/09/04 08:50:11;;;;;;;4.18;3.10;;;;;;;21.19;58.73;100992.75;5039346;28;20041;-76
2023/09/04 08:52:39;;;;;;;4.05;2.95;;;;;;;21.25;58.71;100992.25;5041319;28;20101;-77
2023/09/04 08:55:07;;;;;;;3.50;2.97;;;;;;;21.33;58.90;100986.25;5046657;28;20126;-76
2023/09/04 08:57:34;;;;;;;3.72;2.95;;;;;;;21.40;59.22;100984.75;5052665;28;20786;-78
2023/09/04 09:00:01;;;;;;;5.10;2.70;;;;;;;21.48;58.84;100990.34;5041277;28;20134;-77
2023/09/04 09:02:29;;;;;;;3.58;2.95;;;;;;;21.55;58.69;100987.13;5032318;28;20093;-76
2023/09/04 09:04:57;;;;;;;3.85;2.53;;;;;;;21.63;58.62;100990.00;5036176;28;20103;-76
2023/09/04 09:07:27;;;;;;;3.55;2.90;;;;;;;21.71;58.31;100992.88;5034147;28;20041;-77
2023/09/04 09:09:55;;;;;;;4.75;2.95;;;;;;;21.82;58.97;100996.50;5052259;28;20075;-76
2023/09/04 09:12:22;;;;;;;2.97;2.45;;;;;;;21.91;58.27;100994.88;5052104;28;20045;-76
2023/09/04 09:14:48;;;;;;;3.72;3.00;;;;;;;21.98;58.49;100999.56;5048080;28;20057;-77
2023/09/04 09:17:15;;;;;;;4.10;2.60;;;;;;;22.07;58.10;100989.91;5032248;28;20062;-77
2023/09/04 09:19:43;;;;;;;2.50;2.30;;;;;;;22.16;58.14;100982.88;5032082;28;20128;-76
2023/09/04 09:22:11;;;;;;;4.25;2.90;;;;;;;22.25;58.07;100984.75;5031746;28;20107;-76
2023/09/04 09:24:59;;;;;;;4.32;2.40;;;;;;;22.31;57.57;100982.53;5031902;28;20084;-77
2023/09/04 09:27:31;;;;;;;3.42;2.53;;;;;;;22.43;58.34;100986.81;5037072;28;20063;-76
2023/09/04 09:30:01;;;;;;;2.90;2.40;;;;;;;22.53;57.37;100992.22;5024287;28;20092;-77
2023/09/04 09:32:32;;;;;;;3.78;2.83;;;;;;;22.64;57.83;100988.59;5014145;28;20081;-77
2023/09/04 09:35:00;;;;;;;4.60;2.80;;;;;;;22.75;57.45;100990.34;5032117;28;20050;-76
2023/09/04 09:37:31;;;;;;;3.65;2.40;;;;;;;22.85;56.51;100985.00;5050630;28;20091;-77
2023/09/04 09:39:57;;;;;;;3.75;2.53;;;;;;;22.96;57.24;100979.53;5051867;28;20194;-76
2023/09/04 09:42:27;;;;;;;4.63;2.38;;;;;;;23.04;55.43;100978.81;5051525;28;20114;-77
2023/09/04 09:44:53;;;;;;;3.42;2.13;;;;;;;23.16;56.22;100984.91;5051627;28;20053;-76
2023/09/04 09:47:21;;;;;;;2.53;2.10;;;;;;;23.24;56.62;100973.44;5036272;28;20045;-76
2023/09/04 09:49:48;;;;;;;2.50;2.08;;;;;;;23.35;56.52;100983.22;5031549;28;20103;-77
2023/09/04 09:52:16;;;;;;;4.20;2.25;;;;;;;23.43;56.62;100972.63;5048098;28;20053;-76
2023/09/04 09:54:44;;;;;;;5.25;2.38;;;;;;;23.54;56.07;100975.16;5051586;28;20068;-77
2023/09/04 09:57:12;;;;;;;3.17;2.35;;;;;;;23.65;55.58;100963.41;5051435;28;20135;-76
2023/09/04 09:59:42;;;;;;;3.17;2.30;;;;;;;23.73;55.32;100967.22;5051290;28;20111;-76
2023/09/04 10:02:09;;;;;;;5.95;2.30;;;;;;;23.85;55.20;100971.44;5038484;28;20112;-77
2023/09/04 10:04:36;;;;;;;3.53;2.30;;;;;;;23.95;54.79;100974.97;5031445;28;20045;-76
2023/09/04 10:07:04;;;;;;;3.67;2.20;;;;;;;24.03;55.01;100976.91;5031467;28;20444;-77
2023/09/04 10:09:44;;;;;;;3.08;2.13;;;;;;;24.12;54.98;100969.84;5013805;28;20085;-77
2023/09/04 10:12:33;;;;;;;2.30;2.10;;;;;;;24.24;54.65;100959.75;5040692;28;20128;-77
2023/09/04 10:15:00;;;;;;;2.38;1.83;;;;;;;24.43;55.30;100963.34;5051458;28;20455;-76
2023/09/04 10:17:36;;;;;;;4.78;2.22;;;;;;;24.52;53.52;100959.72;5033650;28;20053;-77
2023/09/04 10:20:05;;;;;;;2.97;2.00;;;;;;;24.65;53.64;100950.47;5051200;28;20045;-77
2023/09/04 10:22:37;;;;;;;2.17;1.88;;;;;;;24.72;54.80;100946.19;5040747;28;20096;-77
2023/09/04 10:25:27;;;;;;;2.72;2.08;;;;;;;24.84;53.80;100945.00;5032369;28;20452;-77
2023/09/04 10:28:23;;;;;;;3.15;2.00;;;;;;;24.94;53.34;100941.38;5035349;28;20877;-78
2023/09/04 10:31:09;;;;;;;2.20;1.92;;;;;;;25.11;53.22;100924.38;5035008;28;20057;-76
2023/09/04 10:33:37;;;;;;;4.45;2.20;;;;;;;25.18;52.76;100918.34;5050959;28;20041;-77
2023/09/04 10:36:05;;;;;;;3.28;2.03;;;;;;;25.25;51.95;100914.03;5055126;28;20053;-78
2023/09/04 10:38:32;;;;;;;3.58;1.92;;;;;;;25.31;52.02;100913.41;5055123;28;20067;-76
2023/09/04 10:41:00;;;;;;;4.13;2.17;;;;;;;25.37;51.44;100910.09;5054757;28;20055;-76
2023/09/04 10:43:42;;;;;;;5.38;1.70;;;;;;;25.42;50.92;100916.88;5043014;28;20108;-77
2023/09/04 10:46:11;;;;;;;3.58;1.90;;;;;;;25.53;51.43;100900.41;5035209;28;20045;-77
2023/09/04 10:48:41;;;;;;;2.25;1.88;;;;;;;25.61;50.61;100905.06;5035089;28;20072;-76
2023/09/04 10:51:29;;;;;;;2.60;1.90;;;;;;;25.67;51.55;100909.00;5034592;28;20128;-76
2023/09/04 10:53:57;;;;;;;4.18;1.67;;;;;;;25.82;51.23;100915.47;5037615;28;20104;-76
2023/09/04 10:56:24;;;;;;;4.10;1.77;;;;;;;25.93;51.82;100906.25;5040144;28;20136;-77
2023/09/04 10:59:05;;;;;;;4.32;2.03;;;;;;;26.04;50.56;100901.59;5053312;28;20512;-77
2023/09/04 11:01:35;;;;;;;2.97;1.63;;;;;;;26.24;51.42;100908.41;5017060;28;20053;-77
2023/09/04 11:04:07;;;;;;;2.63;1.88;;;;;;;26.47;51.31;100904.31;5034603;28;20190;-77
2023/09/04 11:06:40;;;;;;;2.38;1.80;;;;;;;26.78;52.21;100903.69;5034939;28;20080;-77
2023/09/04 11:09:11;;;;;;;;;;;;;;;27.13;53.03;100893.59;5035077;28;20053;-77
2023/09/04 11:11:38;;;;;;;1.63;1.42;;;;;;;27.72;51.86;100890.88;5034511;28;19921;-77
2023/09/04 11:14:11;;;;;;;3.10;1.60;;;;;;;28.29;51.27;100891.69;5016943;28;20053;-77
2023/09/04 11:16:48;;;;;;;2.33;1.60;;;;;;;28.93;49.46;100889.78;5034411;28;20095;-77
2023/09/04 11:19:16;;;;;;;1.52;1.38;;;;;;;29.57;47.45;100884.97;5034573;28;20054;-77
2023/09/04 11:21:45;;;;;;;1.92;1.30;;;;;;;30.16;47.57;100897.69;5052578;28;20103;-76
2023/09/04 11:24:11;;;;;;;2.55;1.90;;;;;;;30.73;45.89;100885.41;5054308;28;20390;-75
2023/09/04 11:26:38;;;;;;;2.72;1.60;;;;;;;31.29;44.87;100891.94;5054331;28;20547;-75
2023/09/04 11:29:05;;;;;;;1.80;1.48;;;;;;;31.82;44.22;100879.72;5053952;28;20386;-77